sensor_id;sensor_type;location;lat;lon;timestamp;temperature;humidity
36752;DHT22;22718;49.494;7.036;2022-10-16T00:01:46;14.90;99.90
36752;DHT22;22718;49.494;7.036;2022-10-16T00:04:12;14.90;99.90
36752;DHT22;22718;49.494;7.036;2022-10-16T00:06:38;14.80;99.90
36752;DHT22;22718;49.494;7.036;2022-10-16T00:09:05;14.80;99.90
36752;DHT22;22718;49.494;7.036;2022-10-16T00:11:33;14.80;99.90
36752;DHT22;22718;49.494;7.036;2022-10-16T00:14:00;14.80;99.90
36752;DHT22;22718;49.494;7.036;2022-10-16T00:16:27;14.70;99.90
36752;DHT22;22718;49.494;7.036;2022-10-16T00:18:53;14.70;99.90
36752;DHT22;22718;49.494;7.036;2022-10-16T00:21:22;14.70;99.90
36752;DHT22;22718;49.494;7.036;2022-10-16T00:23:56;14.70;99.90
36752;DHT22;22718;49.494;7.036;2022-10-16T00:26:22;14.70;99.90
36752;DHT22;22718;49.494;7.036;2022-10-16T00:28:49;14.60;99.90
36752;DHT22;22718;49.494;7.036;2022-10-16T00:31:17;14.60;99.90
36752;DHT22;22718;49.494;7.036;2022-10-16T00:33:44;14.60;99.90
36752;DHT22;22718;49.494;7.036;2022-10-16T00:36:11;14.60;99.90
36752;DHT22;22718;49.494;7.036;2022-10-16T00:38:37;14.60;99.90
36752;DHT22;22718;49.494;7.036;2022-10-16T00:41:03;14.60;99.90
36752;DHT22;22718;49.494;7.036;2022-10-16T00:46:10;14.70;99.90
36752;DHT22;22718;49.494;7.036;2022-10-16T00:48:37;14.60;99.90
36752;DHT22;22718;49.494;7.036;2022-10-16T00:51:04;14.60;99.90
36752;DHT22;22718;49.494;7.036;2022-10-16T00:53:31;14.60;99.90
36752;DHT22;22718;49.494;7.036;2022-10-16T00:55:56;14.60;99.90
36752;DHT22;22718;49.494;7.036;2022-10-16T00:58:22;14.60;99.90
36752;DHT22;22718;49.494;7.036;2022-10-16T01:00:48;14.60;99.90
36752;DHT22;22718;49.494;7.036;2022-10-16T01:03:34;14.60;99.90
36752;DHT22;22718;49.494;7.036;2022-10-16T01:09:23;14.60;99.90
36752;DHT22;22718;49.494;7.036;2022-10-16T01:12:10;14.60;99.90
36752;DHT22;22718;49.494;7.036;2022-10-16T01:15:01;14.60;99.90
36752;DHT22;22718;49.494;7.036;2022-10-16T01:17:35;14.60;99.90
36752;DHT22;22718;49.494;7.036;2022-10-16T01:23:05;14.70;99.90
36752;DHT22;22718;49.494;7.036;2022-10-16T01:28:22;14.70;99.90
36752;DHT22;22718;49.494;7.036;2022-10-16T01:30:53;14.70;99.90
36752;DHT22;22718;49.494;7.036;2022-10-16T01:33:23;14.70;99.90
36752;DHT22;22718;49.494;7.036;2022-10-16T01:35:52;14.70;99.90
36752;DHT22;22718;49.494;7.036;2022-10-16T01:38:30;14.70;99.90
36752;DHT22;22718;49.494;7.036;2022-10-16T01:41:02;14.70;99.90
36752;DHT22;22718;49.494;7.036;2022-10-16T01:43:35;14.70;99.90
36752;DHT22;22718;49.494;7.036;2022-10-16T01:46:03;14.70;99.90
36752;DHT22;22718;49.494;7.036;2022-10-16T01:48:29;14.70;99.90
36752;DHT22;22718;49.494;7.036;2022-10-16T01:51:14;14.70;99.90
36752;DHT22;22718;49.494;7.036;2022-10-16T01:53:43;14.70;99.90
36752;DHT22;22718;49.494;7.036;2022-10-16T01:56:11;14.60;99.90
36752;DHT22;22718;49.494;7.036;2022-10-16T01:58:42;14.60;99.90
36752;DHT22;22718;49.494;7.036;2022-10-16T02:01:11;14.60;99.90
36752;DHT22;22718;49.494;7.036;2022-10-16T02:03:39;14.70;99.90
36752;DHT22;22718;49.494;7.036;2022-10-16T02:06:07;14.70;99.90
36752;DHT22;22718;49.494;7.036;2022-10-16T02:08:33;14.70;99.90
36752;DHT22;22718;49.494;7.036;2022-10-16T02:11:00;14.70;99.90
36752;DHT22;22718;49.494;7.036;2022-10-16T02:13:33;14.70;99.90
36752;DHT22;22718;49.494;7.036;2022-10-16T02:16:04;14.70;99.90
36752;DHT22;22718;49.494;7.036;2022-10-16T02:18:32;14.70;99.90
36752;DHT22;22718;49.494;7.036;2022-10-16T02:21:16;14.70;99.90
36752;DHT22;22718;49.494;7.036;2022-10-16T02:26:30;14.80;99.90
36752;DHT22;22718;49.494;7.036;2022-10-16T02:29:00;14.80;99.90
36752;DHT22;22718;49.494;7.036;2022-10-16T02:31:32;14.70;99.90
36752;DHT22;22718;49.494;7.036;2022-10-16T02:34:01;14.70;99.90
36752;DHT22;22718;49.494;7.036;2022-10-16T02:36:28;14.70;99.90
36752;DHT22;22718;49.494;7.036;2022-10-16T02:38:55;14.70;99.90
36752;DHT22;22718;49.494;7.036;2022-10-16T02:41:22;14.80;99.90
36752;DHT22;22718;49.494;7.036;2022-10-16T02:43:48;14.80;99.90
36752;DHT22;22718;49.494;7.036;2022-10-16T02:46:15;14.70;99.90
36752;DHT22;22718;49.494;7.036;2022-10-16T02:48:40;14.70;99.90
36752;DHT22;22718;49.494;7.036;2022-10-16T02:51:06;14.70;99.90
36752;DHT22;22718;49.494;7.036;2022-10-16T02:53:32;14.70;99.90
36752;DHT22;22718;49.494;7.036;2022-10-16T02:55:57;14.70;99.90
36752;DHT22;22718;49.494;7.036;2022-10-16T02:58:23;14.70;99.90
36752;DHT22;22718;49.494;7.036;2022-10-16T03:00:48;14.70;99.90
36752;DHT22;22718;49.494;7.036;2022-10-16T03:03:14;14.70;99.90
36752;DHT22;22718;49.494;7.036;2022-10-16T03:05:39;14.70;99.90
36752;DHT22;22718;49.494;7.036;2022-10-16T03:08:05;14.70;99.90
36752;DHT22;22718;49.494;7.036;2022-10-16T03:10:31;14.70;99.90
36752;DHT22;22718;49.494;7.036;2022-10-16T03:12:56;14.70;99.90
36752;DHT22;22718;49.494;7.036;2022-10-16T03:15:22;14.70;99.90
36752;DHT22;22718;49.494;7.036;2022-10-16T03:17:48;14.70;99.90
36752;DHT22;22718;49.494;7.036;2022-10-16T03:20:13;14.70;99.90
36752;DHT22;22718;49.494;7.036;2022-10-16T03:22:39;14.60;99.90
36752;DHT22;22718;49.494;7.036;2022-10-16T03:25:05;14.70;99.90
36752;DHT22;22718;49.494;7.036;2022-10-16T03:27:30;14.70;99.90
36752;DHT22;22718;49.494;7.036;2022-10-16T03:29:56;14.70;99.90
36752;DHT22;22718;49.494;7.036;2022-10-16T03:32:22;14.70;99.90
36752;DHT22;22718;49.494;7.036;2022-10-16T03:34:47;14.70;99.90
36752;DHT22;22718;49.494;7.036;2022-10-16T03:37:13;14.60;99.90
36752;DHT22;22718;49.494;7.036;2022-10-16T03:39:39;14.70;99.90
36752;DHT22;22718;49.494;7.036;2022-10-16T03:42:04;14.70;99.90
36752;DHT22;22718;49.494;7.036;2022-10-16T03:44:30;14.60;99.90
36752;DHT22;22718;49.494;7.036;2022-10-16T03:46:55;14.60;99.90
36752;DHT22;22718;49.494;7.036;2022-10-16T03:49:21;14.60;99.90
36752;DHT22;22718;49.494;7.036;2022-10-16T03:51:46;14.60;99.90
36752;DHT22;22718;49.494;7.036;2022-10-16T03:54:12;14.60;99.90
36752;DHT22;22718;49.494;7.036;2022-10-16T03:56:38;14.50;99.90
36752;DHT22;22718;49.494;7.036;2022-10-16T03:59:04;14.60;99.90
36752;DHT22;22718;49.494;7.036;2022-10-16T04:01:29;14.50;99.90
36752;DHT22;22718;49.494;7.036;2022-10-16T04:03:55;14.60;99.90
36752;DHT22;22718;49.494;7.036;2022-10-16T04:06:21;14.60;99.90
36752;DHT22;22718;49.494;7.036;2022-10-16T04:08:46;14.60;99.90
36752;DHT22;22718;49.494;7.036;2022-10-16T04:11:12;14.60;99.90
36752;DHT22;22718;49.494;7.036;2022-10-16T04:13:38;14.60;99.90
36752;DHT22;22718;49.494;7.036;2022-10-16T04:16:03;14.60;99.90
36752;DHT22;22718;49.494;7.036;2022-10-16T04:18:29;14.60;99.90
36752;DHT22;22718;49.494;7.036;2022-10-16T04:20:55;14.60;99.90
36752;DHT22;22718;49.494;7.036;2022-10-16T04:23:20;14.60;99.90
36752;DHT22;22718;49.494;7.036;2022-10-16T04:25:48;14.70;99.90
36752;DHT22;22718;49.494;7.036;2022-10-16T04:28:13;14.70;99.90
36752;DHT22;22718;49.494;7.036;2022-10-16T04:30:39;14.70;99.90
36752;DHT22;22718;49.494;7.036;2022-10-16T04:33:05;14.70;99.90
36752;DHT22;22718;49.494;7.036;2022-10-16T04:35:30;14.70;99.90
36752;DHT22;22718;49.494;7.036;2022-10-16T04:37:59;14.70;99.90
36752;DHT22;22718;49.494;7.036;2022-10-16T04:40:24;14.70;99.90
36752;DHT22;22718;49.494;7.036;2022-10-16T04:42:50;14.70;99.90
36752;DHT22;22718;49.494;7.036;2022-10-16T04:45:16;14.70;99.90
36752;DHT22;22718;49.494;7.036;2022-10-16T04:47:41;14.70;99.90
36752;DHT22;22718;49.494;7.036;2022-10-16T04:50:07;14.80;99.90
36752;DHT22;22718;49.494;7.036;2022-10-16T04:52:33;14.70;99.90
36752;DHT22;22718;49.494;7.036;2022-10-16T04:54:59;14.70;99.90
36752;DHT22;22718;49.494;7.036;2022-10-16T04:57:28;14.70;99.90
36752;DHT22;22718;49.494;7.036;2022-10-16T04:59:54;14.70;99.90
36752;DHT22;22718;49.494;7.036;2022-10-16T05:02:20;14.70;99.90
36752;DHT22;22718;49.494;7.036;2022-10-16T05:04:45;14.70;99.90
36752;DHT22;22718;49.494;7.036;2022-10-16T05:07:11;14.70;99.90
36752;DHT22;22718;49.494;7.036;2022-10-16T05:09:36;14.70;99.90
36752;DHT22;22718;49.494;7.036;2022-10-16T05:12:02;14.60;99.90
36752;DHT22;22718;49.494;7.036;2022-10-16T05:14:29;14.60;99.90
36752;DHT22;22718;49.494;7.036;2022-10-16T05:16:54;14.60;99.90
36752;DHT22;22718;49.494;7.036;2022-10-16T05:19:20;14.60;99.90
36752;DHT22;22718;49.494;7.036;2022-10-16T05:21:46;14.60;99.90
36752;DHT22;22718;49.494;7.036;2022-10-16T05:24:11;14.60;99.90
36752;DHT22;22718;49.494;7.036;2022-10-16T05:26:37;14.70;99.90
36752;DHT22;22718;49.494;7.036;2022-10-16T05:29:02;14.70;99.90
36752;DHT22;22718;49.494;7.036;2022-10-16T05:31:28;14.60;99.90
36752;DHT22;22718;49.494;7.036;2022-10-16T05:34:01;14.60;99.90
36752;DHT22;22718;49.494;7.036;2022-10-16T05:36:27;14.70;99.90
36752;DHT22;22718;49.494;7.036;2022-10-16T05:38:52;14.70;99.90
36752;DHT22;22718;49.494;7.036;2022-10-16T05:41:18;14.70;99.90
36752;DHT22;22718;49.494;7.036;2022-10-16T05:43:47;14.70;99.90
36752;DHT22;22718;49.494;7.036;2022-10-16T05:46:13;14.70;99.90
36752;DHT22;22718;49.494;7.036;2022-10-16T05:48:39;14.70;99.90
36752;DHT22;22718;49.494;7.036;2022-10-16T05:51:07;14.70;99.90
36752;DHT22;22718;49.494;7.036;2022-10-16T05:53:34;14.80;99.90
36752;DHT22;22718;49.494;7.036;2022-10-16T05:56:00;14.80;99.90
36752;DHT22;22718;49.494;7.036;2022-10-16T05:58:33;14.80;99.90
36752;DHT22;22718;49.494;7.036;2022-10-16T06:01:02;14.80;99.90
36752;DHT22;22718;49.494;7.036;2022-10-16T06:03:28;14.90;99.90
36752;DHT22;22718;49.494;7.036;2022-10-16T06:05:54;14.80;99.90
36752;DHT22;22718;49.494;7.036;2022-10-16T06:08:21;14.90;99.90
36752;DHT22;22718;49.494;7.036;2022-10-16T06:10:47;14.90;99.90
36752;DHT22;22718;49.494;7.036;2022-10-16T06:13:13;14.80;99.90
36752;DHT22;22718;49.494;7.036;2022-10-16T06:15:40;14.90;99.90
36752;DHT22;22718;49.494;7.036;2022-10-16T06:18:10;14.90;99.90
36752;DHT22;22718;49.494;7.036;2022-10-16T06:20:36;14.90;99.90
36752;DHT22;22718;49.494;7.036;2022-10-16T06:23:02;14.90;99.90
36752;DHT22;22718;49.494;7.036;2022-10-16T06:25:30;14.90;99.90
36752;DHT22;22718;49.494;7.036;2022-10-16T06:27:55;15.00;99.90
36752;DHT22;22718;49.494;7.036;2022-10-16T06:30:21;15.00;99.90
36752;DHT22;22718;49.494;7.036;2022-10-16T06:32:46;15.00;99.90
36752;DHT22;22718;49.494;7.036;2022-10-16T06:35:12;15.00;99.90
36752;DHT22;22718;49.494;7.036;2022-10-16T06:37:38;15.10;99.90
36752;DHT22;22718;49.494;7.036;2022-10-16T06:40:03;15.10;99.90
36752;DHT22;22718;49.494;7.036;2022-10-16T06:42:30;15.00;99.90
36752;DHT22;22718;49.494;7.036;2022-10-16T06:44:55;15.00;99.90
36752;DHT22;22718;49.494;7.036;2022-10-16T06:47:21;15.00;99.90
36752;DHT22;22718;49.494;7.036;2022-10-16T06:49:47;14.90;99.90
36752;DHT22;22718;49.494;7.036;2022-10-16T06:52:12;14.90;99.90
36752;DHT22;22718;49.494;7.036;2022-10-16T06:54:38;14.90;99.90
36752;DHT22;22718;49.494;7.036;2022-10-16T06:57:03;15.00;99.90
36752;DHT22;22718;49.494;7.036;2022-10-16T06:59:29;15.10;99.90
36752;DHT22;22718;49.494;7.036;2022-10-16T07:01:54;15.10;99.90
36752;DHT22;22718;49.494;7.036;2022-10-16T07:04:20;15.20;99.90
36752;DHT22;22718;49.494;7.036;2022-10-16T07:06:46;15.20;99.90
36752;DHT22;22718;49.494;7.036;2022-10-16T07:09:11;15.30;99.90
36752;DHT22;22718;49.494;7.036;2022-10-16T07:11:39;15.30;99.90
36752;DHT22;22718;49.494;7.036;2022-10-16T07:14:05;15.40;99.90
36752;DHT22;22718;49.494;7.036;2022-10-16T07:16:34;15.40;99.90
36752;DHT22;22718;49.494;7.036;2022-10-16T07:19:02;15.50;99.90
36752;DHT22;22718;49.494;7.036;2022-10-16T07:21:30;15.50;99.90
36752;DHT22;22718;49.494;7.036;2022-10-16T07:24:00;15.60;99.90
36752;DHT22;22718;49.494;7.036;2022-10-16T07:26:33;15.60;99.90
36752;DHT22;22718;49.494;7.036;2022-10-16T07:28:59;15.60;99.90
36752;DHT22;22718;49.494;7.036;2022-10-16T07:31:26;15.60;99.90
36752;DHT22;22718;49.494;7.036;2022-10-16T07:33:52;15.60;99.90
36752;DHT22;22718;49.494;7.036;2022-10-16T07:36:19;15.60;99.90
36752;DHT22;22718;49.494;7.036;2022-10-16T07:38:45;15.60;99.90
36752;DHT22;22718;49.494;7.036;2022-10-16T07:41:16;15.60;99.90
36752;DHT22;22718;49.494;7.036;2022-10-16T07:43:47;15.60;99.90
36752;DHT22;22718;49.494;7.036;2022-10-16T07:46:14;15.60;99.90
36752;DHT22;22718;49.494;7.036;2022-10-16T07:48:40;15.60;99.90
36752;DHT22;22718;49.494;7.036;2022-10-16T07:51:06;15.60;99.90
36752;DHT22;22718;49.494;7.036;2022-10-16T07:53:32;15.70;99.90
36752;DHT22;22718;49.494;7.036;2022-10-16T07:55:59;15.70;99.90
36752;DHT22;22718;49.494;7.036;2022-10-16T07:58:26;15.80;99.90
36752;DHT22;22718;49.494;7.036;2022-10-16T08:00:51;15.90;99.90
36752;DHT22;22718;49.494;7.036;2022-10-16T08:03:17;15.90;99.90
36752;DHT22;22718;49.494;7.036;2022-10-16T08:05:43;16.00;99.90
36752;DHT22;22718;49.494;7.036;2022-10-16T08:08:13;16.00;99.90
36752;DHT22;22718;49.494;7.036;2022-10-16T08:10:40;16.00;99.90
36752;DHT22;22718;49.494;7.036;2022-10-16T08:13:05;16.10;99.90
36752;DHT22;22718;49.494;7.036;2022-10-16T08:15:38;16.10;99.90
36752;DHT22;22718;49.494;7.036;2022-10-16T08:18:05;16.20;99.90
36752;DHT22;22718;49.494;7.036;2022-10-16T08:20:32;16.20;99.90
36752;DHT22;22718;49.494;7.036;2022-10-16T08:22:59;16.20;99.90
36752;DHT22;22718;49.494;7.036;2022-10-16T08:25:25;16.30;99.90
36752;DHT22;22718;49.494;7.036;2022-10-16T08:27:51;16.40;99.90
36752;DHT22;22718;49.494;7.036;2022-10-16T08:30:20;16.60;99.90
36752;DHT22;22718;49.494;7.036;2022-10-16T08:32:46;16.70;99.90
36752;DHT22;22718;49.494;7.036;2022-10-16T08:35:13;16.80;99.90
36752;DHT22;22718;49.494;7.036;2022-10-16T08:37:39;17.10;99.90
36752;DHT22;22718;49.494;7.036;2022-10-16T08:40:21;17.40;99.90
36752;DHT22;22718;49.494;7.036;2022-10-16T08:46:10;17.50;99.90
36752;DHT22;22718;49.494;7.036;2022-10-16T08:51:04;17.40;99.90
36752;DHT22;22718;49.494;7.036;2022-10-16T08:53:51;17.50;99.90
36752;DHT22;22718;49.494;7.036;2022-10-16T08:56:17;17.50;99.90
36752;DHT22;22718;49.494;7.036;2022-10-16T08:58:45;17.70;99.90
36752;DHT22;22718;49.494;7.036;2022-10-16T09:01:13;18.00;99.90
36752;DHT22;22718;49.494;7.036;2022-10-16T09:06:46;18.60;99.90
36752;DHT22;22718;49.494;7.036;2022-10-16T09:22:42;18.80;99.90
36752;DHT22;22718;49.494;7.036;2022-10-16T09:25:16;18.90;99.90
36752;DHT22;22718;49.494;7.036;2022-10-16T09:27:46;18.90;99.90
36752;DHT22;22718;49.494;7.036;2022-10-16T09:30:18;19.00;99.90
36752;DHT22;22718;49.494;7.036;2022-10-16T09:32:46;19.00;99.90
36752;DHT22;22718;49.494;7.036;2022-10-16T09:35:19;19.10;99.90
36752;DHT22;22718;49.494;7.036;2022-10-16T09:37:48;19.10;99.90
36752;DHT22;22718;49.494;7.036;2022-10-16T09:40:37;19.20;99.90
36752;DHT22;22718;49.494;7.036;2022-10-16T09:43:07;19.30;99.90
36752;DHT22;22718;49.494;7.036;2022-10-16T09:45:38;19.50;99.90
36752;DHT22;22718;49.494;7.036;2022-10-16T09:48:11;19.50;99.90
36752;DHT22;22718;49.494;7.036;2022-10-16T09:50:38;19.60;99.90
36752;DHT22;22718;49.494;7.036;2022-10-16T09:53:11;19.80;99.90
36752;DHT22;22718;49.494;7.036;2022-10-16T09:55:48;19.80;99.90
36752;DHT22;22718;49.494;7.036;2022-10-16T09:58:14;19.80;99.90
36752;DHT22;22718;49.494;7.036;2022-10-16T10:00:41;19.70;99.90
36752;DHT22;22718;49.494;7.036;2022-10-16T10:03:11;19.60;99.90
36752;DHT22;22718;49.494;7.036;2022-10-16T10:05:39;19.40;99.90
36752;DHT22;22718;49.494;7.036;2022-10-16T10:08:06;19.30;99.90
36752;DHT22;22718;49.494;7.036;2022-10-16T10:10:39;19.20;99.90
36752;DHT22;22718;49.494;7.036;2022-10-16T10:13:21;19.10;99.90
36752;DHT22;22718;49.494;7.036;2022-10-16T10:15:47;19.20;99.90
36752;DHT22;22718;49.494;7.036;2022-10-16T10:18:21;19.30;99.90
36752;DHT22;22718;49.494;7.036;2022-10-16T10:20:59;19.40;99.90
36752;DHT22;22718;49.494;7.036;2022-10-16T10:23:27;19.50;99.90
36752;DHT22;22718;49.494;7.036;2022-10-16T10:28:53;19.60;99.90
36752;DHT22;22718;49.494;7.036;2022-10-16T10:31:31;19.80;99.90
36752;DHT22;22718;49.494;7.036;2022-10-16T10:37:02;20.50;99.90
36752;DHT22;22718;49.494;7.036;2022-10-16T10:39:44;20.50;99.90
36752;DHT22;22718;49.494;7.036;2022-10-16T10:44:52;20.30;99.90
36752;DHT22;22718;49.494;7.036;2022-10-16T10:47:36;20.20;99.90
36752;DHT22;22718;49.494;7.036;2022-10-16T10:53:01;19.80;99.90
36752;DHT22;22718;49.494;7.036;2022-10-16T10:55:33;19.80;99.90
36752;DHT22;22718;49.494;7.036;2022-10-16T11:06:25;19.10;99.90
36752;DHT22;22718;49.494;7.036;2022-10-16T11:09:13;19.10;99.90
36752;DHT22;22718;49.494;7.036;2022-10-16T11:11:53;19.10;99.90
36752;DHT22;22718;49.494;7.036;2022-10-16T11:17:14;19.10;99.90
36752;DHT22;22718;49.494;7.036;2022-10-16T11:19:58;19.10;99.90
36752;DHT22;22718;49.494;7.036;2022-10-16T11:22:33;19.10;99.90
36752;DHT22;22718;49.494;7.036;2022-10-16T11:25:13;19.10;99.90
36752;DHT22;22718;49.494;7.036;2022-10-16T11:30:26;19.00;99.90
36752;DHT22;22718;49.494;7.036;2022-10-16T11:33:19;19.00;99.90
36752;DHT22;22718;49.494;7.036;2022-10-16T11:36:00;19.00;99.90
36752;DHT22;22718;49.494;7.036;2022-10-16T11:38:34;19.00;99.90
36752;DHT22;22718;49.494;7.036;2022-10-16T11:41:47;19.00;99.90
36752;DHT22;22718;49.494;7.036;2022-10-16T11:44:42;19.10;99.90
36752;DHT22;22718;49.494;7.036;2022-10-16T11:47:30;19.10;99.90
36752;DHT22;22718;49.494;7.036;2022-10-16T11:50:24;19.10;99.90
36752;DHT22;22718;49.494;7.036;2022-10-16T11:52:58;19.00;99.90
36752;DHT22;22718;49.494;7.036;2022-10-16T11:55:47;19.10;99.90
36752;DHT22;22718;49.494;7.036;2022-10-16T11:59:11;19.10;99.90
36752;DHT22;22718;49.494;7.036;2022-10-16T12:06:49;19.20;99.90
36752;DHT22;22718;49.494;7.036;2022-10-16T12:09:30;19.20;99.90
36752;DHT22;22718;49.494;7.036;2022-10-16T12:11:57;19.20;99.90
36752;DHT22;22718;49.494;7.036;2022-10-16T12:14:35;19.10;99.90
36752;DHT22;22718;49.494;7.036;2022-10-16T12:22:53;19.00;99.90
36752;DHT22;22718;49.494;7.036;2022-10-16T12:25:30;18.90;99.90
36752;DHT22;22718;49.494;7.036;2022-10-16T12:28:25;18.90;99.90
36752;DHT22;22718;49.494;7.036;2022-10-16T12:30:57;19.00;99.90
36752;DHT22;22718;49.494;7.036;2022-10-16T12:33:35;19.10;99.90
36752;DHT22;22718;49.494;7.036;2022-10-16T12:36:29;19.20;99.90
36752;DHT22;22718;49.494;7.036;2022-10-16T12:38:55;19.20;99.90
36752;DHT22;22718;49.494;7.036;2022-10-16T12:43:52;19.40;99.90
36752;DHT22;22718;49.494;7.036;2022-10-16T12:48:44;19.70;99.90
36752;DHT22;22718;49.494;7.036;2022-10-16T12:51:34;19.90;99.90
36752;DHT22;22718;49.494;7.036;2022-10-16T12:54:03;20.10;99.90
36752;DHT22;22718;49.494;7.036;2022-10-16T12:59:09;20.30;99.90
36752;DHT22;22718;49.494;7.036;2022-10-16T13:01:41;20.30;99.90
36752;DHT22;22718;49.494;7.036;2022-10-16T13:07:14;20.30;99.90
36752;DHT22;22718;49.494;7.036;2022-10-16T13:10:14;20.30;99.90
36752;DHT22;22718;49.494;7.036;2022-10-16T13:18:59;20.20;99.90
36752;DHT22;22718;49.494;7.036;2022-10-16T13:22:05;20.20;99.90
36752;DHT22;22718;49.494;7.036;2022-10-16T13:29:53;20.40;99.90
36752;DHT22;22718;49.494;7.036;2022-10-16T13:32:21;20.40;99.90
36752;DHT22;22718;49.494;7.036;2022-10-16T13:34:48;20.50;99.90
36752;DHT22;22718;49.494;7.036;2022-10-16T13:37:19;20.50;99.90
36752;DHT22;22718;49.494;7.036;2022-10-16T13:39:45;20.50;99.90
36752;DHT22;22718;49.494;7.036;2022-10-16T13:44:53;20.40;99.90
36752;DHT22;22718;49.494;7.036;2022-10-16T13:47:26;20.40;99.90
36752;DHT22;22718;49.494;7.036;2022-10-16T13:50:22;20.30;99.90
36752;DHT22;22718;49.494;7.036;2022-10-16T13:52:47;20.20;99.90
36752;DHT22;22718;49.494;7.036;2022-10-16T13:55:19;20.10;99.90
36752;DHT22;22718;49.494;7.036;2022-10-16T13:57:45;20.00;99.90
36752;DHT22;22718;49.494;7.036;2022-10-16T14:00:23;19.90;99.90
36752;DHT22;22718;49.494;7.036;2022-10-16T14:03:00;19.90;99.90
36752;DHT22;22718;49.494;7.036;2022-10-16T14:05:27;20.00;99.90
36752;DHT22;22718;49.494;7.036;2022-10-16T14:07:54;19.90;99.90
36752;DHT22;22718;49.494;7.036;2022-10-16T14:10:27;19.90;99.90
36752;DHT22;22718;49.494;7.036;2022-10-16T14:13:01;19.80;99.90
36752;DHT22;22718;49.494;7.036;2022-10-16T14:15:27;19.80;99.90
36752;DHT22;22718;49.494;7.036;2022-10-16T14:17:54;19.80;99.90
36752;DHT22;22718;49.494;7.036;2022-10-16T14:20:27;19.80;99.90
36752;DHT22;22718;49.494;7.036;2022-10-16T14:23:23;19.80;99.90
36752;DHT22;22718;49.494;7.036;2022-10-16T14:25:53;19.80;99.90
36752;DHT22;22718;49.494;7.036;2022-10-16T14:28:21;19.80;99.90
36752;DHT22;22718;49.494;7.036;2022-10-16T14:30:56;19.80;99.90
36752;DHT22;22718;49.494;7.036;2022-10-16T14:33:33;19.90;99.90
36752;DHT22;22718;49.494;7.036;2022-10-16T14:36:06;19.90;99.90
36752;DHT22;22718;49.494;7.036;2022-10-16T14:38:38;19.90;99.90
36752;DHT22;22718;49.494;7.036;2022-10-16T14:41:04;19.90;99.90
36752;DHT22;22718;49.494;7.036;2022-10-16T14:43:39;19.90;99.90
36752;DHT22;22718;49.494;7.036;2022-10-16T14:46:38;19.80;99.90
36752;DHT22;22718;49.494;7.036;2022-10-16T14:51:37;19.70;99.90
36752;DHT22;22718;49.494;7.036;2022-10-16T14:54:03;19.70;99.90
36752;DHT22;22718;49.494;7.036;2022-10-16T14:56:31;19.70;99.90
36752;DHT22;22718;49.494;7.036;2022-10-16T14:58:59;19.60;99.90
36752;DHT22;22718;49.494;7.036;2022-10-16T15:01:26;19.60;99.90
36752;DHT22;22718;49.494;7.036;2022-10-16T15:03:51;19.60;99.90
36752;DHT22;22718;49.494;7.036;2022-10-16T15:06:20;19.50;99.90
36752;DHT22;22718;49.494;7.036;2022-10-16T15:08:46;19.50;99.90
36752;DHT22;22718;49.494;7.036;2022-10-16T15:11:17;19.50;99.90
36752;DHT22;22718;49.494;7.036;2022-10-16T15:13:43;19.50;99.90
36752;DHT22;22718;49.494;7.036;2022-10-16T15:16:12;19.50;99.90
36752;DHT22;22718;49.494;7.036;2022-10-16T15:18:38;19.30;99.90
36752;DHT22;22718;49.494;7.036;2022-10-16T15:21:03;19.30;99.90
36752;DHT22;22718;49.494;7.036;2022-10-16T15:23:29;19.30;99.90
36752;DHT22;22718;49.494;7.036;2022-10-16T15:25:55;19.20;99.90
36752;DHT22;22718;49.494;7.036;2022-10-16T15:28:22;19.20;99.90
36752;DHT22;22718;49.494;7.036;2022-10-16T15:30:53;19.20;99.90
36752;DHT22;22718;49.494;7.036;2022-10-16T15:33:24;19.10;99.90
36752;DHT22;22718;49.494;7.036;2022-10-16T15:35:52;19.10;99.90
36752;DHT22;22718;49.494;7.036;2022-10-16T15:38:20;19.10;99.90
36752;DHT22;22718;49.494;7.036;2022-10-16T15:40:46;19.10;99.90
36752;DHT22;22718;49.494;7.036;2022-10-16T15:43:12;19.10;99.90
36752;DHT22;22718;49.494;7.036;2022-10-16T15:45:38;19.00;99.90
36752;DHT22;22718;49.494;7.036;2022-10-16T15:48:04;18.90;99.90
36752;DHT22;22718;49.494;7.036;2022-10-16T15:50:31;18.90;99.90
36752;DHT22;22718;49.494;7.036;2022-10-16T15:52:57;18.80;99.90
36752;DHT22;22718;49.494;7.036;2022-10-16T15:55:23;18.70;99.90
36752;DHT22;22718;49.494;7.036;2022-10-16T15:57:49;18.70;99.90
36752;DHT22;22718;49.494;7.036;2022-10-16T16:00:17;18.60;99.90
36752;DHT22;22718;49.494;7.036;2022-10-16T16:02:45;18.60;99.90
36752;DHT22;22718;49.494;7.036;2022-10-16T16:05:14;18.50;99.90
36752;DHT22;22718;49.494;7.036;2022-10-16T16:07:40;18.40;99.90
36752;DHT22;22718;49.494;7.036;2022-10-16T16:10:08;18.40;99.90
36752;DHT22;22718;49.494;7.036;2022-10-16T16:12:35;18.30;99.90
36752;DHT22;22718;49.494;7.036;2022-10-16T16:15:00;18.20;99.90
36752;DHT22;22718;49.494;7.036;2022-10-16T16:17:26;18.10;99.90
36752;DHT22;22718;49.494;7.036;2022-10-16T16:19:52;18.00;99.90
36752;DHT22;22718;49.494;7.036;2022-10-16T16:22:18;17.90;99.90
36752;DHT22;22718;49.494;7.036;2022-10-16T16:24:43;17.80;99.90
36752;DHT22;22718;49.494;7.036;2022-10-16T16:27:09;17.70;99.90
36752;DHT22;22718;49.494;7.036;2022-10-16T16:29:35;17.60;99.90
36752;DHT22;22718;49.494;7.036;2022-10-16T16:32:01;17.60;99.90
36752;DHT22;22718;49.494;7.036;2022-10-16T16:34:30;17.50;99.90
36752;DHT22;22718;49.494;7.036;2022-10-16T16:36:56;17.40;99.90
36752;DHT22;22718;49.494;7.036;2022-10-16T16:39:23;17.30;99.90
36752;DHT22;22718;49.494;7.036;2022-10-16T16:41:49;17.20;99.90
36752;DHT22;22718;49.494;7.036;2022-10-16T16:44:15;17.10;99.90
36752;DHT22;22718;49.494;7.036;2022-10-16T16:46:43;17.00;99.90
36752;DHT22;22718;49.494;7.036;2022-10-16T16:49:11;16.90;99.90
36752;DHT22;22718;49.494;7.036;2022-10-16T16:51:38;16.80;99.90
36752;DHT22;22718;49.494;7.036;2022-10-16T16:54:04;16.70;99.90
36752;DHT22;22718;49.494;7.036;2022-10-16T16:56:30;16.70;99.90
36752;DHT22;22718;49.494;7.036;2022-10-16T16:58:57;16.60;99.90
36752;DHT22;22718;49.494;7.036;2022-10-16T17:01:25;16.50;99.90
36752;DHT22;22718;49.494;7.036;2022-10-16T17:03:53;16.50;99.90
36752;DHT22;22718;49.494;7.036;2022-10-16T17:06:24;16.40;99.90
36752;DHT22;22718;49.494;7.036;2022-10-16T17:08:50;16.40;99.90
36752;DHT22;22718;49.494;7.036;2022-10-16T17:11:21;16.30;99.90
36752;DHT22;22718;49.494;7.036;2022-10-16T17:13:47;16.20;99.90
36752;DHT22;22718;49.494;7.036;2022-10-16T17:16:13;16.20;99.90
36752;DHT22;22718;49.494;7.036;2022-10-16T17:18:39;16.20;99.90
36752;DHT22;22718;49.494;7.036;2022-10-16T17:21:07;16.10;99.90
36752;DHT22;22718;49.494;7.036;2022-10-16T17:23:33;16.10;99.90
36752;DHT22;22718;49.494;7.036;2022-10-16T17:26:06;16.10;99.90